N93HQ MYGF-MYNN
Flight info
| Callsign | N93HQ |
|---|---|
| Flight time | 0h 36m |
| Altitude | 9500 |
| Route | BUCK CEGUR 63V HANKX |
| Aircraft | HDJT/M-V/N |
Departure
| Time | 2026-04-19 23:49 |
|---|---|
| Airport | Grand Bahama International Airport (MYGF) |
Arrival
| Time | 2026-04-20 00:25 |
|---|---|
| Airport | Lynden Pindling International Airport (MYNN) |
| Time | Latitude | Longitude | Altitude | Speed | Heading |
|---|---|---|---|---|---|
| 2026-04-19 23:20 | 26.54892 | -78.70108 | 19 ft | 0 kts | 86° |
| 2026-04-19 23:41 | 26.54894 | -78.70090 | 19 ft | 1 kts | 60° |
| 2026-04-19 23:41 | 26.54897 | -78.70089 | 19 ft | 1 kts | 12° |
| 2026-04-19 23:41 | 26.54900 | -78.70092 | 19 ft | 0 kts | 301° |
| 2026-04-19 23:42 | 26.54903 | -78.70099 | 19 ft | 4 kts | 295° |
| 2026-04-19 23:43 | 26.54908 | -78.70159 | 19 ft | 10 kts | 269° |
| 2026-04-19 23:43 | 26.54929 | -78.70239 | 19 ft | 10 kts | 316° |
| 2026-04-19 23:43 | 26.54956 | -78.70313 | 19 ft | 12 kts | 277° |
| 2026-04-19 23:43 | 26.54961 | -78.70412 | 19 ft | 13 kts | 271° |
| 2026-04-19 23:44 | 26.54964 | -78.70522 | 19 ft | 15 kts | 274° |
| 2026-04-19 23:44 | 26.54970 | -78.70644 | 19 ft | 16 kts | 272° |
| 2026-04-19 23:44 | 26.54972 | -78.70777 | 19 ft | 18 kts | 271° |
| 2026-04-19 23:44 | 26.54976 | -78.70918 | 19 ft | 18 kts | 273° |
| 2026-04-19 23:45 | 26.54994 | -78.70998 | 19 ft | 7 kts | 314° |
| 2026-04-19 23:45 | 26.55024 | -78.71011 | 19 ft | 0 kts | 1° |
| 2026-04-19 23:47 | 26.55027 | -78.71011 | 19 ft | 3 kts | 2° |
| 2026-04-19 23:47 | 26.55052 | -78.71009 | 19 ft | 4 kts | 3° |
| 2026-04-19 23:47 | 26.55085 | -78.71007 | 19 ft | 5 kts | 3° |
| 2026-04-19 23:48 | 26.55129 | -78.70998 | 19 ft | 8 kts | 19° |
| 2026-04-19 23:48 | 26.55163 | -78.70970 | 20 ft | 0 kts | 55° |
| 2026-04-19 23:48 | 26.55226 | -78.70852 | 20 ft | 49 kts | 60° |
| 2026-04-19 23:49 | 26.55505 | -78.70287 | 21 ft | 117 kts | 59° |
| 2026-04-19 23:49 | 26.55950 | -78.69410 | 482 ft | 129 kts | 63° |
| 2026-04-19 23:49 | 26.56322 | -78.68505 | 1168 ft | 126 kts | 67° |
| 2026-04-19 23:49 | 26.56606 | -78.67457 | 1621 ft | 159 kts | 86° |
| 2026-04-19 23:50 | 26.56370 | -78.66130 | 1985 ft | 192 kts | 115° |
| 2026-04-19 23:50 | 26.55507 | -78.64937 | 2514 ft | 206 kts | 142° |
| 2026-04-19 23:50 | 26.54212 | -78.64153 | 3073 ft | 218 kts | 148° |
| 2026-04-19 23:50 | 26.53058 | -78.62888 | 3111 ft | 248 kts | 127° |
| 2026-04-19 23:51 | 26.52005 | -78.61296 | 3457 ft | 256 kts | 125° |
| 2026-04-19 23:51 | 26.50954 | -78.59696 | 3948 ft | 256 kts | 126° |
| 2026-04-19 23:51 | 26.49900 | -78.58090 | 4435 ft | 257 kts | 126° |
| 2026-04-19 23:51 | 26.48833 | -78.56493 | 4924 ft | 258 kts | 126° |
| 2026-04-19 23:52 | 26.47765 | -78.54862 | 5411 ft | 258 kts | 126° |
| 2026-04-19 23:52 | 26.46714 | -78.53248 | 5893 ft | 258 kts | 125° |
| 2026-04-19 23:52 | 26.45663 | -78.51629 | 6386 ft | 258 kts | 126° |
| 2026-04-19 23:52 | 26.44613 | -78.50016 | 6855 ft | 257 kts | 126° |
| 2026-04-19 23:53 | 26.43558 | -78.48395 | 7328 ft | 256 kts | 126° |
| 2026-04-19 23:53 | 26.42514 | -78.46792 | 7802 ft | 256 kts | 125° |
| 2026-04-19 23:53 | 26.41456 | -78.45177 | 8289 ft | 259 kts | 126° |
| 2026-04-19 23:53 | 26.40388 | -78.43544 | 8791 ft | 262 kts | 126° |
| 2026-04-19 23:54 | 26.39321 | -78.41912 | 9285 ft | 264 kts | 126° |
| 2026-04-19 23:54 | 26.38218 | -78.40223 | 9515 ft | 277 kts | 126° |
| 2026-04-19 23:54 | 26.37064 | -78.38456 | 9532 ft | 286 kts | 126° |
| 2026-04-19 23:54 | 26.35881 | -78.36648 | 9534 ft | 288 kts | 126° |
| 2026-04-19 23:55 | 26.34708 | -78.34854 | 9528 ft | 289 kts | 126° |
| 2026-04-19 23:55 | 26.33522 | -78.33045 | 9526 ft | 289 kts | 126° |
| 2026-04-19 23:55 | 26.32330 | -78.31230 | 9528 ft | 290 kts | 126° |
| 2026-04-19 23:55 | 26.31153 | -78.29433 | 9526 ft | 290 kts | 126° |
| 2026-04-19 23:56 | 26.29947 | -78.27596 | 9529 ft | 289 kts | 126° |
| 2026-04-19 23:56 | 26.28773 | -78.25803 | 9528 ft | 288 kts | 126° |
| 2026-04-19 23:56 | 26.27586 | -78.23993 | 9524 ft | 287 kts | 126° |
| 2026-04-19 23:56 | 26.26418 | -78.22207 | 9519 ft | 287 kts | 126° |
| 2026-04-19 23:57 | 26.25256 | -78.20427 | 9523 ft | 286 kts | 126° |
| 2026-04-19 23:57 | 26.24071 | -78.18614 | 9519 ft | 286 kts | 126° |
| 2026-04-19 23:57 | 26.22911 | -78.16833 | 9520 ft | 285 kts | 126° |
| 2026-04-19 23:57 | 26.21743 | -78.15034 | 9522 ft | 285 kts | 126° |
| 2026-04-19 23:58 | 26.20591 | -78.13257 | 9521 ft | 285 kts | 126° |
| 2026-04-19 23:58 | 26.19445 | -78.11481 | 9519 ft | 284 kts | 126° |
| 2026-04-19 23:58 | 26.18286 | -78.09685 | 9518 ft | 284 kts | 126° |
| 2026-04-19 23:58 | 26.17128 | -78.07881 | 9521 ft | 284 kts | 125° |
| 2026-04-19 23:59 | 26.16000 | -78.06124 | 9519 ft | 283 kts | 125° |
| 2026-04-19 23:59 | 26.14847 | -78.04327 | 9520 ft | 283 kts | 125° |
| 2026-04-19 23:59 | 26.13695 | -78.02533 | 9520 ft | 283 kts | 126° |
| 2026-04-19 23:59 | 26.12560 | -78.00762 | 9521 ft | 283 kts | 125° |
| 2026-04-20 00:00 | 26.11428 | -77.98990 | 9520 ft | 282 kts | 125° |
| 2026-04-20 00:00 | 26.10287 | -77.97205 | 9520 ft | 282 kts | 126° |
| 2026-04-20 00:00 | 26.09148 | -77.95415 | 9526 ft | 282 kts | 125° |
| 2026-04-20 00:00 | 26.08019 | -77.93640 | 9516 ft | 282 kts | 125° |
| 2026-04-20 00:01 | 26.06884 | -77.91848 | 9515 ft | 282 kts | 125° |
| 2026-04-20 00:01 | 26.05751 | -77.90060 | 9514 ft | 282 kts | 126° |
| 2026-04-20 00:01 | 26.03518 | -77.86513 | 9505 ft | 282 kts | 125° |
| 2026-04-20 00:02 | 26.02385 | -77.84714 | 9497 ft | 281 kts | 125° |
| 2026-04-20 00:02 | 26.01256 | -77.82917 | 9496 ft | 281 kts | 125° |
| 2026-04-20 00:02 | 26.00142 | -77.81140 | 9496 ft | 281 kts | 125° |
| 2026-04-20 00:02 | 25.99036 | -77.79377 | 9498 ft | 281 kts | 125° |
| 2026-04-20 00:03 | 25.97920 | -77.77591 | 9499 ft | 280 kts | 125° |
| 2026-04-20 00:03 | 25.96809 | -77.75814 | 9497 ft | 280 kts | 125° |
| 2026-04-20 00:03 | 25.95712 | -77.74054 | 9500 ft | 280 kts | 125° |
| 2026-04-20 00:03 | 25.94599 | -77.72266 | 9500 ft | 280 kts | 125° |
| 2026-04-20 00:04 | 25.93493 | -77.70486 | 9502 ft | 280 kts | 125° |
| 2026-04-20 00:04 | 25.92387 | -77.68703 | 9502 ft | 280 kts | 125° |
| 2026-04-20 00:04 | 25.91285 | -77.66921 | 9355 ft | 285 kts | 125° |
| 2026-04-20 00:04 | 25.90149 | -77.65081 | 9025 ft | 290 kts | 125° |
| 2026-04-20 00:05 | 25.89012 | -77.63249 | 8657 ft | 292 kts | 125° |
| 2026-04-20 00:05 | 25.87856 | -77.61388 | 8290 ft | 292 kts | 125° |
| 2026-04-20 00:05 | 25.86702 | -77.59533 | 7927 ft | 292 kts | 125° |
| 2026-04-20 00:05 | 25.85534 | -77.57670 | 7563 ft | 292 kts | 125° |
| 2026-04-20 00:06 | 25.84376 | -77.55824 | 7205 ft | 290 kts | 125° |
| 2026-04-20 00:06 | 25.83228 | -77.54000 | 6829 ft | 289 kts | 125° |
| 2026-04-20 00:06 | 25.82071 | -77.52171 | 6426 ft | 288 kts | 125° |
| 2026-04-20 00:06 | 25.80924 | -77.50360 | 6007 ft | 288 kts | 125° |
| 2026-04-20 00:07 | 25.79774 | -77.48547 | 5593 ft | 287 kts | 125° |
| 2026-04-20 00:07 | 25.78631 | -77.46746 | 5180 ft | 286 kts | 125° |
| 2026-04-20 00:07 | 25.77490 | -77.44941 | 4770 ft | 284 kts | 125° |
| 2026-04-20 00:07 | 25.76359 | -77.43153 | 4352 ft | 283 kts | 125° |
| 2026-04-20 00:08 | 25.75211 | -77.41370 | 3925 ft | 282 kts | 125° |
| 2026-04-20 00:08 | 25.74077 | -77.39596 | 3511 ft | 281 kts | 125° |
| 2026-04-20 00:08 | 25.72943 | -77.37842 | 3100 ft | 279 kts | 124° |
| 2026-04-20 00:08 | 25.71852 | -77.36140 | 2995 ft | 265 kts | 125° |
| 2026-04-20 00:09 | 25.70783 | -77.34477 | 2992 ft | 264 kts | 124° |
| 2026-04-20 00:09 | 25.69700 | -77.32822 | 2989 ft | 265 kts | 128° |
| 2026-04-20 00:09 | 25.68280 | -77.31531 | 2986 ft | 267 kts | 154° |
| 2026-04-20 00:09 | 25.66496 | -77.31138 | 2987 ft | 267 kts | 183° |
| 2026-04-20 00:10 | 25.64730 | -77.31763 | 2994 ft | 264 kts | 213° |
| 2026-04-20 00:10 | 25.63418 | -77.33157 | 2998 ft | 261 kts | 231° |
| 2026-04-20 00:10 | 25.62230 | -77.34639 | 3002 ft | 260 kts | 225° |
| 2026-04-20 00:10 | 25.60786 | -77.35848 | 3005 ft | 260 kts | 210° |
| 2026-04-20 00:11 | 25.59179 | -77.36760 | 3005 ft | 259 kts | 207° |
| 2026-04-20 00:11 | 25.57607 | -77.37733 | 3003 ft | 258 kts | 212° |
| 2026-04-20 00:11 | 25.56100 | -77.38811 | 3002 ft | 258 kts | 213° |
| 2026-04-20 00:11 | 25.54585 | -77.39834 | 2998 ft | 253 kts | 211° |
| 2026-04-20 00:12 | 25.53075 | -77.40813 | 2994 ft | 249 kts | 211° |
| 2026-04-20 00:12 | 25.51603 | -77.41800 | 2994 ft | 246 kts | 212° |
| 2026-04-20 00:12 | 25.50135 | -77.42781 | 2990 ft | 245 kts | 211° |
| 2026-04-20 00:12 | 25.48669 | -77.43758 | 2990 ft | 245 kts | 211° |
| 2026-04-20 00:13 | 25.47215 | -77.44726 | 2987 ft | 244 kts | 211° |
| 2026-04-20 00:13 | 25.45769 | -77.45691 | 2989 ft | 244 kts | 211° |
| 2026-04-20 00:13 | 25.44307 | -77.46661 | 2990 ft | 244 kts | 211° |
| 2026-04-20 00:13 | 25.42866 | -77.47622 | 2991 ft | 243 kts | 212° |
| 2026-04-20 00:14 | 25.41412 | -77.48589 | 2992 ft | 243 kts | 211° |
| 2026-04-20 00:14 | 25.39965 | -77.49546 | 2992 ft | 243 kts | 211° |
| 2026-04-20 00:14 | 25.38520 | -77.50509 | 2990 ft | 242 kts | 212° |
| 2026-04-20 00:14 | 25.37120 | -77.51442 | 2990 ft | 242 kts | 211° |
| 2026-04-20 00:15 | 25.35674 | -77.52398 | 2990 ft | 242 kts | 211° |
| 2026-04-20 00:15 | 25.34232 | -77.53358 | 2991 ft | 243 kts | 211° |
| 2026-04-20 00:15 | 25.32790 | -77.54313 | 2992 ft | 242 kts | 211° |
| 2026-04-20 00:15 | 25.31350 | -77.55269 | 2995 ft | 242 kts | 212° |
| 2026-04-20 00:16 | 25.29905 | -77.56231 | 2993 ft | 242 kts | 211° |
| 2026-04-20 00:16 | 25.28451 | -77.57192 | 2994 ft | 242 kts | 211° |
| 2026-04-20 00:16 | 25.27024 | -77.58141 | 2993 ft | 242 kts | 211° |
| 2026-04-20 00:16 | 25.25577 | -77.59097 | 2992 ft | 243 kts | 211° |
| 2026-04-20 00:17 | 25.24122 | -77.60065 | 2994 ft | 242 kts | 211° |
| 2026-04-20 00:17 | 25.22677 | -77.61019 | 2992 ft | 242 kts | 211° |
| 2026-04-20 00:17 | 25.21230 | -77.61978 | 2992 ft | 243 kts | 211° |
| 2026-04-20 00:17 | 25.19775 | -77.62943 | 2990 ft | 243 kts | 211° |
| 2026-04-20 00:18 | 25.18334 | -77.63896 | 2997 ft | 242 kts | 211° |
| 2026-04-20 00:18 | 25.16867 | -77.64867 | 2996 ft | 242 kts | 211° |
| 2026-04-20 00:18 | 25.15444 | -77.65807 | 2997 ft | 243 kts | 211° |
| 2026-04-20 00:18 | 25.13993 | -77.66770 | 2997 ft | 242 kts | 211° |
| 2026-04-20 00:19 | 25.12539 | -77.67726 | 2998 ft | 242 kts | 210° |
| 2026-04-20 00:19 | 25.10972 | -77.68335 | 2993 ft | 241 kts | 188° |
| 2026-04-20 00:19 | 25.09336 | -77.68405 | 2991 ft | 233 kts | 178° |
| 2026-04-20 00:19 | 25.07739 | -77.68359 | 2991 ft | 227 kts | 175° |
| 2026-04-20 00:20 | 25.06239 | -77.67889 | 2989 ft | 219 kts | 153° |
| 2026-04-20 00:20 | 25.05015 | -77.66974 | 2993 ft | 211 kts | 135° |
| 2026-04-20 00:20 | 25.04131 | -77.65730 | 3003 ft | 197 kts | 118° |
| 2026-04-20 00:20 | 25.03653 | -77.64431 | 2878 ft | 175 kts | 103° |
| 2026-04-20 00:21 | 25.03503 | -77.63152 | 2653 ft | 163 kts | 89° |
| 2026-04-20 00:21 | 25.03518 | -77.62342 | 2513 ft | 157 kts | 88° |
| 2026-04-20 00:21 | 25.03520 | -77.60780 | 2245 ft | 148 kts | 89° |
| 2026-04-20 00:21 | 25.03526 | -77.59668 | 2043 ft | 143 kts | 89° |
| 2026-04-20 00:22 | 25.03530 | -77.58945 | 1916 ft | 139 kts | 88° |
| 2026-04-20 00:22 | 25.03537 | -77.57904 | 1729 ft | 133 kts | 88° |
| 2026-04-20 00:22 | 25.03542 | -77.56898 | 1561 ft | 129 kts | 88° |
| 2026-04-20 00:22 | 25.03548 | -77.55924 | 1395 ft | 126 kts | 88° |
| 2026-04-20 00:23 | 25.03553 | -77.54985 | 1282 ft | 115 kts | 88° |
| 2026-04-20 00:23 | 25.03559 | -77.54073 | 1095 ft | 123 kts | 88° |
| 2026-04-20 00:23 | 25.03566 | -77.53121 | 922 ft | 124 kts | 88° |
| 2026-04-20 00:23 | 25.03568 | -77.52188 | 762 ft | 121 kts | 88° |
| 2026-04-20 00:24 | 25.03567 | -77.51346 | 611 ft | 117 kts | 88° |
| 2026-04-20 00:24 | 25.03574 | -77.50454 | 451 ft | 114 kts | 89° |
| 2026-04-20 00:24 | 25.03575 | -77.49588 | 320 ft | 114 kts | 90° |
| 2026-04-20 00:24 | 25.03595 | -77.48685 | 144 ft | 121 kts | 88° |
| 2026-04-20 00:25 | 25.03595 | -77.47794 | 18 ft | 108 kts | 89° |
| 2026-04-20 00:25 | 25.03604 | -77.47083 | 12 ft | 78 kts | 91° |
| 2026-04-20 00:25 | 25.03604 | -77.46559 | 12 ft | 60 kts | 89° |
| 2026-04-20 00:25 | 25.03604 | -77.46267 | 13 ft | 19 kts | 91° |
| 2026-04-20 00:26 | 25.03604 | -77.46136 | 13 ft | 16 kts | 91° |
| 2026-04-20 00:26 | 25.03568 | -77.46037 | 12 ft | 13 kts | 131° |
| 2026-04-20 00:26 | 25.03510 | -77.45972 | 12 ft | 11 kts | 134° |
| 2026-04-20 00:26 | 25.03482 | -77.45940 | 11 ft | 0 kts | 135° |
| 2026-04-20 00:27 | 25.03477 | -77.45935 | 11 ft | 5 kts | 135° |
| 2026-04-20 00:28 | 25.03426 | -77.45878 | 11 ft | 15 kts | 134° |
| 2026-04-20 00:28 | 25.03342 | -77.45781 | 11 ft | 19 kts | 134° |
| 2026-04-20 00:28 | 25.03273 | -77.45709 | 11 ft | 11 kts | 144° |
| 2026-04-20 00:28 | 25.03211 | -77.45705 | 11 ft | 8 kts | 198° |
| 2026-04-20 00:29 | 25.03163 | -77.45724 | 11 ft | 6 kts | 192° |
| 2026-04-20 00:29 | 25.03129 | -77.45721 | 11 ft | 4 kts | 151° |
| 2026-04-20 00:29 | 25.03112 | -77.45703 | 11 ft | 3 kts | 128° |
| 2026-04-20 00:29 | 25.03104 | -77.45691 | 11 ft | 1 kts | 126° |
| 2026-04-20 00:30 | 25.03100 | -77.45669 | 11 ft | 4 kts | 93° |
| 2026-04-20 00:30 | 25.03103 | -77.45639 | 11 ft | 3 kts | 56° |
| 2026-04-20 00:30 | 25.03115 | -77.45637 | 11 ft | 0 kts | 297° |
| 2026-04-20 00:31 | 25.03114 | -77.45640 | 11 ft | 0 kts | 230° |
| 2026-04-20 00:31 | 25.03113 | -77.45641 | 11 ft | 0 kts | 228° |